sensor_id;sensor_type;location;lat;lon;timestamp;P1;durP1;ratioP1;P2;durP2;ratioP2
52368;SDS011;38298;50.346;3.526;2022-11-20T17:32:46;20.48;;;2.70;;
52368;SDS011;38298;50.346;3.526;2022-11-20T17:35:12;26.45;;;4.05;;
52368;SDS011;38298;50.346;3.526;2022-11-20T17:37:38;18.75;;;3.53;;
52368;SDS011;38298;50.346;3.526;2022-11-20T17:40:04;11.20;;;2.53;;
52368;SDS011;38298;50.346;3.526;2022-11-20T17:42:30;16.42;;;3.28;;
52368;SDS011;38298;50.346;3.526;2022-11-20T17:45:01;23.48;;;2.65;;
52368;SDS011;38298;50.346;3.526;2022-11-20T17:47:27;17.48;;;2.42;;
52368;SDS011;38298;50.346;3.526;2022-11-20T17:49:53;21.98;;;3.08;;
52368;SDS011;38298;50.346;3.526;2022-11-20T17:52:19;17.98;;;2.70;;
52368;SDS011;38298;50.346;3.526;2022-11-20T17:54:46;14.57;;;2.42;;
52368;SDS011;38298;50.346;3.526;2022-11-20T17:57:12;11.23;;;2.15;;
52368;SDS011;38298;50.346;3.526;2022-11-20T18:00:18;12.98;;;2.22;;
52368;SDS011;38298;50.346;3.526;2022-11-20T18:02:44;11.82;;;1.90;;
52368;SDS011;38298;50.346;3.526;2022-11-20T18:05:10;27.48;;;3.80;;
52368;SDS011;38298;50.346;3.526;2022-11-20T18:07:36;11.15;;;2.47;;
52368;SDS011;38298;50.346;3.526;2022-11-20T18:10:03;23.08;;;2.58;;
52368;SDS011;38298;50.346;3.526;2022-11-20T18:12:32;11.63;;;2.45;;
52368;SDS011;38298;50.346;3.526;2022-11-20T18:14:58;12.15;;;2.20;;
52368;SDS011;38298;50.346;3.526;2022-11-20T18:17:25;17.42;;;3.30;;
52368;SDS011;38298;50.346;3.526;2022-11-20T18:19:51;15.63;;;3.05;;
52368;SDS011;38298;50.346;3.526;2022-11-20T18:22:17;10.88;;;2.97;;
52368;SDS011;38298;50.346;3.526;2022-11-20T18:24:44;12.32;;;2.78;;
52368;SDS011;38298;50.346;3.526;2022-11-20T18:27:17;24.05;;;3.53;;
52368;SDS011;38298;50.346;3.526;2022-11-20T18:29:44;15.35;;;2.78;;
52368;SDS011;38298;50.346;3.526;2022-11-20T18:32:10;18.88;;;3.08;;
52368;SDS011;38298;50.346;3.526;2022-11-20T18:34:36;18.25;;;2.70;;
52368;SDS011;38298;50.346;3.526;2022-11-20T18:37:03;22.45;;;3.53;;
52368;SDS011;38298;50.346;3.526;2022-11-20T18:39:29;11.95;;;2.65;;
52368;SDS011;38298;50.346;3.526;2022-11-20T18:41:55;15.13;;;2.60;;
52368;SDS011;38298;50.346;3.526;2022-11-20T18:44:40;20.48;;;3.17;;
52368;SDS011;38298;50.346;3.526;2022-11-20T18:47:17;22.42;;;3.53;;
52368;SDS011;38298;50.346;3.526;2022-11-20T18:49:44;22.75;;;3.25;;
52368;SDS011;38298;50.346;3.526;2022-11-20T18:52:12;22.33;;;3.53;;
52368;SDS011;38298;50.346;3.526;2022-11-20T18:54:38;17.13;;;3.25;;
52368;SDS011;38298;50.346;3.526;2022-11-20T18:57:04;17.63;;;2.83;;
52368;SDS011;38298;50.346;3.526;2022-11-20T18:59:30;15.38;;;4.00;;
52368;SDS011;38298;50.346;3.526;2022-11-20T19:01:56;21.05;;;3.58;;
52368;SDS011;38298;50.346;3.526;2022-11-20T19:04:22;29.42;;;3.85;;
52368;SDS011;38298;50.346;3.526;2022-11-20T19:06:48;15.75;;;2.53;;
52368;SDS011;38298;50.346;3.526;2022-11-20T19:09:14;12.88;;;3.22;;
52368;SDS011;38298;50.346;3.526;2022-11-20T19:11:41;22.58;;;2.72;;
52368;SDS011;38298;50.346;3.526;2022-11-20T19:14:07;8.27;;;2.72;;
52368;SDS011;38298;50.346;3.526;2022-11-20T19:16:33;23.05;;;3.55;;
52368;SDS011;38298;50.346;3.526;2022-11-20T19:18:59;14.73;;;3.85;;
52368;SDS011;38298;50.346;3.526;2022-11-20T19:21:25;20.23;;;2.90;;
52368;SDS011;38298;50.346;3.526;2022-11-20T19:23:55;23.80;;;3.20;;
52368;SDS011;38298;50.346;3.526;2022-11-20T19:26:22;20.10;;;3.55;;
52368;SDS011;38298;50.346;3.526;2022-11-20T19:28:48;19.85;;;3.97;;
52368;SDS011;38298;50.346;3.526;2022-11-20T19:31:16;20.75;;;3.97;;
52368;SDS011;38298;50.346;3.526;2022-11-20T19:33:42;19.15;;;3.38;;
52368;SDS011;38298;50.346;3.526;2022-11-20T19:36:09;17.23;;;4.38;;
52368;SDS011;38298;50.346;3.526;2022-11-20T19:38:36;14.73;;;3.03;;
52368;SDS011;38298;50.346;3.526;2022-11-20T19:41:02;22.42;;;3.60;;
52368;SDS011;38298;50.346;3.526;2022-11-20T19:43:28;21.48;;;3.55;;
52368;SDS011;38298;50.346;3.526;2022-11-20T19:45:55;17.25;;;3.25;;
52368;SDS011;38298;50.346;3.526;2022-11-20T19:48:21;14.30;;;3.13;;
52368;SDS011;38298;50.346;3.526;2022-11-20T19:50:47;16.10;;;3.13;;
52368;SDS011;38298;50.346;3.526;2022-11-20T19:53:13;16.10;;;3.25;;
52368;SDS011;38298;50.346;3.526;2022-11-20T19:55:39;23.73;;;4.63;;
52368;SDS011;38298;50.346;3.526;2022-11-20T19:58:07;12.48;;;2.35;;
52368;SDS011;38298;50.346;3.526;2022-11-20T20:00:33;11.45;;;2.65;;
52368;SDS011;38298;50.346;3.526;2022-11-20T20:02:59;16.45;;;3.30;;
52368;SDS011;38298;50.346;3.526;2022-11-20T20:05:25;22.33;;;4.68;;
52368;SDS011;38298;50.346;3.526;2022-11-20T20:07:51;17.20;;;3.05;;
52368;SDS011;38298;50.346;3.526;2022-11-20T20:10:17;18.80;;;2.83;;
52368;SDS011;38298;50.346;3.526;2022-11-20T20:12:44;19.00;;;3.00;;
52368;SDS011;38298;50.346;3.526;2022-11-20T20:15:10;21.20;;;3.33;;
52368;SDS011;38298;50.346;3.526;2022-11-20T20:17:36;19.42;;;3.08;;
52368;SDS011;38298;50.346;3.526;2022-11-20T20:20:02;9.35;;;1.83;;
52368;SDS011;38298;50.346;3.526;2022-11-20T20:22:28;14.52;;;2.53;;
52368;SDS011;38298;50.346;3.526;2022-11-20T20:24:56;13.18;;;2.58;;
52368;SDS011;38298;50.346;3.526;2022-11-20T20:27:22;19.13;;;2.20;;
52368;SDS011;38298;50.346;3.526;2022-11-20T20:29:48;15.20;;;2.60;;
52368;SDS011;38298;50.346;3.526;2022-11-20T20:32:14;17.88;;;3.00;;
52368;SDS011;38298;50.346;3.526;2022-11-20T20:34:40;9.55;;;2.05;;
52368;SDS011;38298;50.346;3.526;2022-11-20T20:37:09;9.93;;;2.35;;
52368;SDS011;38298;50.346;3.526;2022-11-20T20:39:35;14.82;;;1.92;;
52368;SDS011;38298;50.346;3.526;2022-11-20T20:42:01;11.65;;;1.98;;
52368;SDS011;38298;50.346;3.526;2022-11-20T20:44:27;10.70;;;2.10;;
52368;SDS011;38298;50.346;3.526;2022-11-20T20:47:11;5.72;;;1.67;;
52368;SDS011;38298;50.346;3.526;2022-11-20T20:49:37;9.43;;;2.05;;
52368;SDS011;38298;50.346;3.526;2022-11-20T20:52:07;10.73;;;2.20;;
52368;SDS011;38298;50.346;3.526;2022-11-20T20:54:33;7.88;;;1.73;;
52368;SDS011;38298;50.346;3.526;2022-11-20T20:56:59;11.38;;;2.95;;
52368;SDS011;38298;50.346;3.526;2022-11-20T20:59:25;5.25;;;1.75;;
52368;SDS011;38298;50.346;3.526;2022-11-20T21:01:51;11.23;;;1.80;;
52368;SDS011;38298;50.346;3.526;2022-11-20T21:04:17;10.85;;;1.92;;
52368;SDS011;38298;50.346;3.526;2022-11-20T21:06:43;8.82;;;1.67;;
52368;SDS011;38298;50.346;3.526;2022-11-20T21:09:09;6.43;;;1.40;;
52368;SDS011;38298;50.346;3.526;2022-11-20T21:11:35;8.10;;;1.50;;
52368;SDS011;38298;50.346;3.526;2022-11-20T21:14:01;8.05;;;1.33;;
52368;SDS011;38298;50.346;3.526;2022-11-20T21:16:27;13.38;;;1.20;;
52368;SDS011;38298;50.346;3.526;2022-11-20T21:19:04;8.55;;;1.52;;
52368;SDS011;38298;50.346;3.526;2022-11-20T21:21:31;8.60;;;1.58;;
52368;SDS011;38298;50.346;3.526;2022-11-20T21:24:15;6.97;;;1.30;;
52368;SDS011;38298;50.346;3.526;2022-11-20T21:26:42;3.50;;;0.90;;
52368;SDS011;38298;50.346;3.526;2022-11-20T21:29:08;4.38;;;1.55;;
52368;SDS011;38298;50.346;3.526;2022-11-20T21:31:34;6.05;;;1.13;;
52368;SDS011;38298;50.346;3.526;2022-11-20T21:34:01;5.93;;;1.20;;
52368;SDS011;38298;50.346;3.526;2022-11-20T21:36:27;11.38;;;1.67;;
52368;SDS011;38298;50.346;3.526;2022-11-20T21:38:54;8.80;;;1.42;;
52368;SDS011;38298;50.346;3.526;2022-11-20T21:41:21;8.55;;;1.45;;
52368;SDS011;38298;50.346;3.526;2022-11-20T21:43:47;5.68;;;2.10;;
52368;SDS011;38298;50.346;3.526;2022-11-20T21:46:15;7.20;;;1.42;;
52368;SDS011;38298;50.346;3.526;2022-11-20T21:48:42;13.57;;;1.60;;
52368;SDS011;38298;50.346;3.526;2022-11-20T21:53:37;5.25;;;1.15;;
52368;SDS011;38298;50.346;3.526;2022-11-20T21:56:06;7.80;;;1.60;;
52368;SDS011;38298;50.346;3.526;2022-11-20T21:58:32;9.10;;;1.65;;
52368;SDS011;38298;50.346;3.526;2022-11-20T22:00:58;18.92;;;2.45;;
52368;SDS011;38298;50.346;3.526;2022-11-20T22:03:27;13.90;;;2.17;;
52368;SDS011;38298;50.346;3.526;2022-11-20T22:05:54;7.20;;;1.95;;
52368;SDS011;38298;50.346;3.526;2022-11-20T22:08:20;10.75;;;2.15;;
52368;SDS011;38298;50.346;3.526;2022-11-20T22:10:53;7.85;;;2.17;;
52368;SDS011;38298;50.346;3.526;2022-11-20T22:13:19;5.90;;;1.90;;
52368;SDS011;38298;50.346;3.526;2022-11-20T22:16:04;10.25;;;2.15;;
52368;SDS011;38298;50.346;3.526;2022-11-20T22:18:30;8.40;;;2.08;;
52368;SDS011;38298;50.346;3.526;2022-11-20T22:20:56;10.55;;;2.70;;
52368;SDS011;38298;50.346;3.526;2022-11-20T22:23:27;12.73;;;2.38;;
52368;SDS011;38298;50.346;3.526;2022-11-20T22:25:54;6.47;;;2.83;;
52368;SDS011;38298;50.346;3.526;2022-11-20T22:28:20;11.38;;;3.42;;
52368;SDS011;38298;50.346;3.526;2022-11-20T22:30:46;16.67;;;4.05;;
52368;SDS011;38298;50.346;3.526;2022-11-20T22:33:12;15.65;;;3.75;;
52368;SDS011;38298;50.346;3.526;2022-11-20T22:35:38;13.27;;;2.88;;
52368;SDS011;38298;50.346;3.526;2022-11-20T22:38:04;9.30;;;2.58;;
52368;SDS011;38298;50.346;3.526;2022-11-20T22:40:31;8.25;;;2.17;;
52368;SDS011;38298;50.346;3.526;2022-11-20T22:42:57;7.78;;;2.20;;
52368;SDS011;38298;50.346;3.526;2022-11-20T22:45:23;5.85;;;1.75;;
52368;SDS011;38298;50.346;3.526;2022-11-20T22:47:49;7.47;;;1.85;;
52368;SDS011;38298;50.346;3.526;2022-11-20T22:50:15;10.90;;;2.28;;
52368;SDS011;38298;50.346;3.526;2022-11-20T22:52:41;9.15;;;1.77;;
52368;SDS011;38298;50.346;3.526;2022-11-20T22:55:07;10.57;;;2.05;;
52368;SDS011;38298;50.346;3.526;2022-11-20T22:57:33;12.82;;;1.88;;
52368;SDS011;38298;50.346;3.526;2022-11-20T22:59:59;8.00;;;1.98;;
52368;SDS011;38298;50.346;3.526;2022-11-20T23:02:25;13.75;;;2.17;;
52368;SDS011;38298;50.346;3.526;2022-11-20T23:04:51;13.02;;;2.08;;
52368;SDS011;38298;50.346;3.526;2022-11-20T23:07:17;11.52;;;2.45;;
52368;SDS011;38298;50.346;3.526;2022-11-20T23:09:43;10.10;;;1.65;;
52368;SDS011;38298;50.346;3.526;2022-11-20T23:12:09;20.88;;;2.20;;
52368;SDS011;38298;50.346;3.526;2022-11-20T23:14:35;10.98;;;1.90;;
52368;SDS011;38298;50.346;3.526;2022-11-20T23:17:04;7.93;;;2.03;;
52368;SDS011;38298;50.346;3.526;2022-11-20T23:19:30;11.90;;;2.00;;
52368;SDS011;38298;50.346;3.526;2022-11-20T23:21:56;8.23;;;1.83;;
52368;SDS011;38298;50.346;3.526;2022-11-20T23:24:22;4.47;;;1.40;;
52368;SDS011;38298;50.346;3.526;2022-11-20T23:26:48;8.90;;;1.63;;
52368;SDS011;38298;50.346;3.526;2022-11-20T23:29:15;8.93;;;1.67;;
52368;SDS011;38298;50.346;3.526;2022-11-20T23:31:41;5.82;;;1.50;;
52368;SDS011;38298;50.346;3.526;2022-11-20T23:34:07;11.38;;;1.60;;
52368;SDS011;38298;50.346;3.526;2022-11-20T23:36:33;9.68;;;1.60;;
52368;SDS011;38298;50.346;3.526;2022-11-20T23:38:59;9.30;;;1.67;;
52368;SDS011;38298;50.346;3.526;2022-11-20T23:41:25;7.32;;;1.75;;
52368;SDS011;38298;50.346;3.526;2022-11-20T23:43:52;7.15;;;1.67;;
52368;SDS011;38298;50.346;3.526;2022-11-20T23:46:18;5.53;;;1.48;;
52368;SDS011;38298;50.346;3.526;2022-11-20T23:48:44;8.43;;;1.70;;
52368;SDS011;38298;50.346;3.526;2022-11-20T23:51:10;9.20;;;2.05;;
52368;SDS011;38298;50.346;3.526;2022-11-20T23:53:36;7.70;;;1.83;;
52368;SDS011;38298;50.346;3.526;2022-11-20T23:56:02;12.82;;;1.52;;
52368;SDS011;38298;50.346;3.526;2022-11-20T23:58:30;5.80;;;1.08;;
